Portada
METAR-TAF:

METAR-TAF

Aeroports :

Zielona Góra, Polònia

latitud: 52-08-19N, longitud: 015-47-55E, altitud: 59 m

Observació

L'informe es va fer fa 5 hores i 24 minuts, a les 20:00 UTC
Vent 3 kt del Nord/Nord-Oest, variant entre Nord-Oest i Nord/Nord-Est
Temperatura 19°C
Humitat 78%
Pressió 1019 hPa
Visibilitat 10 km o més
sense núvols per sota de 1500 mi sense presència de cumulonimbus.

METAR: EPZG 152000Z 34003KT 310V020 CAVOK 19/15 Q1019

Hora: 03:24 (01:24 UTC)

Pronòstic

L'informe es va fer fa 4 hores i 54 minuts, a les 20:30 UTC
Pronòstic vàlid del 15 a les 21 UTC al 16 a les 06 UTC
Vent 3 kt del Nord
Visibilitat 10 km o més
sense núvols per sota de 1500 mi sense presència de cumulonimbus.

TAF: EPZG 152030Z 1521/1606 35003KT CAVOK

Observacions i pronòstics meteorològics de més de 4000 aeroports (METAR i TAF).

Les estacions disponibles són els punts grocs i vermells al mapa.

Posi el ratolí al punt desitjat per veure el nom de l'estació.

Feu clic per veure les observacions i els pronòstics meteorològics.

Per canviar el mapa: feu clic els botons verds amb una creu de color negre per apropar; al botó verd amb un guió per allunyar la imatge; o en les fletxes verdes per a mapes adjacents.


METAR-TAF: